Sukkur Weather



Sukkur's Current Weather

Temprature 17o haze

haze

Rain: 0 %

Min Temprature17o
Max Temprature17o
Humidity48
Wind Speed3.94 m/h
Sun Rise07:14:54
Sun Set17:57:33
Current Time: 23-Jan-2021 19:31:04
Lat/Lon: 27.7052, 68.8574




Sukkur's Geo Location



Sukkur's Weather Forecast

Time Overall Temp Min Temp Max Temp Humidity Wind Speed Rain
23-Jan-2021 (Sat)
20:00:00 clear sky 16.000 14.960 16.000 35 3.94 m/h 0 %
23:00:00 clear sky 14.240 13.480 14.240 29 4.58 m/h 0 %
24-Jan-2021 (Sun)
02:00:00 clear sky 12.760 12.470 12.760 29 4.63 m/h 0 %
05:00:00 clear sky 10.500 10.450 10.500 35 3.82 m/h 0 %
08:00:00 clear sky 10.340 10.340 10.340 45 3.31 m/h 0 %
11:00:00 clear sky 19.780 19.780 19.780 23 3.79 m/h 0 %
14:00:00 clear sky 23.730 23.730 23.730 17 2.89 m/h 0 %
17:00:00 clear sky 23.420 23.420 23.420 17 1.73 m/h 0 %
20:00:00 clear sky 12.910 12.910 12.910 35 1.7 m/h 0 %
23:00:00 clear sky 12.600 12.600 12.600 32 3.01 m/h 0 %
25-Jan-2021 (Mon)
02:00:00 clear sky 10.440 10.440 10.440 36 2.43 m/h 0 %
05:00:00 clear sky 9.680 9.680 9.680 38 2.61 m/h 0 %
08:00:00 clear sky 10.090 10.090 10.090 38 1.7 m/h 0 %
11:00:00 clear sky 20.230 20.230 20.230 20 1.06 m/h 0 %
14:00:00 clear sky 23.840 23.840 23.840 16 0.78 m/h 0 %
17:00:00 clear sky 23.040 23.040 23.040 16 0.94 m/h 0 %
20:00:00 clear sky 12.250 12.250 12.250 39 0.99 m/h 0 %
23:00:00 clear sky 10.920 10.920 10.920 36 1.97 m/h 0 %
26-Jan-2021 (Tue)
02:00:00 clear sky 8.840 8.840 8.840 48 1.38 m/h 0 %
05:00:00 clear sky 7.930 7.930 7.930 50 1.24 m/h 0 %
08:00:00 clear sky 10.510 10.510 10.510 37 0.5 m/h 0 %
11:00:00 clear sky 21.600 21.600 21.600 18 0.52 m/h 0 %
14:00:00 clear sky 24.840 24.840 24.840 14 0.49 m/h 0 %
17:00:00 clear sky 23.840 23.840 23.840 15 1.18 m/h 0 %
20:00:00 clear sky 13.550 13.550 13.550 33 1.63 m/h 0 %
23:00:00 clear sky 11.320 11.320 11.320 35 1.64 m/h 0 %
27-Jan-2021 (Wed)
02:00:00 clear sky 10.350 10.350 10.350 38 1.98 m/h 0 %
05:00:00 clear sky 10.630 10.630 10.630 32 2.63 m/h 0 %
08:00:00 clear sky 11.590 11.590 11.590 31 2.62 m/h 0 %
11:00:00 clear sky 21.210 21.210 21.210 17 1.74 m/h 0 %
14:00:00 clear sky 25.180 25.180 25.180 13 0.63 m/h 0 %
17:00:00 clear sky 23.920 23.920 23.920 15 0.06 m/h 0 %
20:00:00 clear sky 13.120 13.120 13.120 35 1.39 m/h 0 %
23:00:00 clear sky 12.600 12.600 12.600 29 2.57 m/h 0 %
28-Jan-2021 (Thu)
02:00:00 clear sky 10.490 10.490 10.490 33 2.07 m/h 0 %
05:00:00 clear sky 8.520 8.520 8.520 47 1.37 m/h 0 %
08:00:00 clear sky 11.290 11.290 11.290 32 1.25 m/h 0 %
11:00:00 clear sky 22.170 22.170 22.170 16 1.26 m/h 0 %
14:00:00 clear sky 25.390 25.390 25.390 13 1.36 m/h 0 %
17:00:00 clear sky 24.670 24.670 24.670 14 1.32 m/h 0 %

Famous Cities (60)